Wetterdaten: Woche 22.02.16 - 28.02.16 (KW8)
Datum Zeit Temp. A. Feuchte A. Luftdruck Regen Wind Richtung Taupunkt Windchill Windben
22.02.2016 00:00 14,4 C 61 % 1011,4 hPa 0,0 l/m 6,8 km/h N 7,1 C 14,2 C 20,5 km/h
22.02.2016 01:00 14,4 C 59 % 1010,8 hPa 0,0 l/m 3,5 km/h N 6,6 C 14,4 C 16,5 km/h
22.02.2016 02:00 14,8 C 56 % 1010,3 hPa 0,0 l/m 7,2 km/h N 6,1 C 14,3 C 24,5 km/h
22.02.2016 03:00 14,8 C 56 % 1010,1 hPa 0,0 l/m 6,9 km/h N 6,0 C 14,5 C 21,3 km/h
22.02.2016 04:00 14,8 C 52 % 1009,8 hPa 0,0 l/m 5,5 km/h N 5,0 C 14,4 C 18,1 km/h
22.02.2016 05:00 14,9 C 48 % 1009,7 hPa 0,0 l/m 4,8 km/h N 3,9 C 14,8 C 15,7 km/h
22.02.2016 06:00 14,8 C 48 % 1009,3 hPa 0,0 l/m 3,8 km/h N 3,8 C 14,8 C 16,9 km/h
22.02.2016 07:00 14,9 C 48 % 1009,2 hPa 0,0 l/m 4,9 km/h N 4,0 C 14,6 C 18,1 km/h
22.02.2016 08:00 15,7 C 49 % 1009,3 hPa 0,0 l/m 13,2 km/h N 5,0 C 12,7 C 33,0 km/h
22.02.2016 09:00 16,0 C 49 % 1010,1 hPa 0,0 l/m 10,9 km/h N 5,3 C 13,9 C 29,8 km/h
22.02.2016 10:00 16,8 C 47 % 1010,2 hPa 0,0 l/m 11,7 km/h N 5,5 C 14,4 C 33,8 km/h
22.02.2016 11:00 16,9 C 50 % 1009,8 hPa 0,0 l/m 13,6 km/h N 6,2 C 13,9 C 38,2 km/h
22.02.2016 12:00 17,4 C 48 % 1009,3 hPa 0,0 l/m 8,2 km/h N 6,2 C 16,5 C 24,1 km/h
22.02.2016 13:00 18,5 C 39 % 1008,5 hPa 0,0 l/m 9,5 km/h N 4,4 C 17,3 C 28,5 km/h
22.02.2016 14:00 20,1 C 36 % 1007,4 hPa 0,0 l/m 12,2 km/h N 4,4 C 18,1 C 29,8 km/h
22.02.2016 15:00 20,5 C 37 % 1006,9 hPa 0,0 l/m 8,8 km/h N 5,2 C 19,7 C 22,9 km/h
22.02.2016 16:00 19,9 C 40 % 1007,2 hPa 0,0 l/m 4,2 km/h N 5,9 C 19,6 C 12,9 km/h
22.02.2016 17:00 18,6 C 43 % 1007,8 hPa 0,0 l/m 1,3 km/h N 5,6 C 18,6 C 8,4 km/h
22.02.2016 18:00 15,5 C 57 % 1008,1 hPa 0,0 l/m 0,1 km/h N 7,0 C 15,5 C 2,0 km/h
22.02.2016 19:00 12,5 C 69 % 1008,2 hPa 0,0 l/m 0,1 km/h N 6,8 C 12,5 C 0,8 km/h
22.02.2016 20:00 10,9 C 76 % 1007,9 hPa 0,0 l/m 0,2 km/h N 6,8 C 10,9 C 1,2 km/h
22.02.2016 21:00 10,8 C 68 % 1007,3 hPa 0,0 l/m 1,4 km/h N 4,9 C 10,8 C 6,8 km/h
22.02.2016 22:00 16,4 C 38 % 1006,9 hPa 0,0 l/m 8,3 km/h N 1,8 C 15,4 C 28,2 km/h
22.02.2016 23:00 17,0 C 36 % 1006,5 hPa 0,0 l/m 13,0 km/h N 1,8 C 14,2 C 32,2 km/h
23.02.2016 00:00 16,7 C 37 % 1006,0 hPa 0,0 l/m 17,0 km/h N 1,8 C 12,7 C 42,3 km/h
23.02.2016 01:00 16,3 C 37 % 1005,8 hPa 0,0 l/m 15,6 km/h N 1,4 C 12,6 C 37,8 km/h
23.02.2016 02:00 15,6 C 41 % 1005,9 hPa 0,0 l/m 10,5 km/h N 2,2 C 13,6 C 29,0 km/h
23.02.2016 03:00 15,2 C 43 % 1005,9 hPa 0,0 l/m 9,6 km/h N 2,7 C 13,7 C 30,1 km/h
23.02.2016 04:00 15,1 C 45 % 1006,2 hPa 0,0 l/m 14,2 km/h N 3,2 C 11,6 C 36,6 km/h
23.02.2016 05:00 14,6 C 49 % 1006,8 hPa 0,0 l/m 9,4 km/h N 3,8 C 13,0 C 28,2 km/h
23.02.2016 06:00 13,8 C 52 % 1007,1 hPa 0,0 l/m 9,3 km/h N 4,0 C 12,1 C 26,5 km/h
23.02.2016 07:00 13,2 C 55 % 1007,5 hPa 0,0 l/m 5,2 km/h N 4,4 C 13,1 C 19,7 km/h
23.02.2016 08:00 13,0 C 56 % 1007,5 hPa 0,0 l/m 6,0 km/h N 4,5 C 12,6 C 25,7 km/h
23.02.2016 09:00 13,1 C 58 % 1007,2 hPa 0,0 l/m 0,6 km/h N 4,9 C 13,1 C 3,2 km/h
23.02.2016 10:00 13,0 C 60 % 1006,6 hPa 0,0 l/m 3,0 km/h N 5,3 C 12,6 C 11,6 km/h
23.02.2016 11:00 13,9 C 56 % 1006,4 hPa 0,0 l/m 6,4 km/h N 5,2 C 13,5 C 20,5 km/h
23.02.2016 12:00 14,3 C 54 % 1006,2 hPa 0,0 l/m 9,4 km/h N 5,1 C 12,7 C 24,5 km/h
23.02.2016 13:00 14,4 C 51 % 1006,0 hPa 0,0 l/m 8,4 km/h N 4,4 C 13,2 C 27,8 km/h
23.02.2016 14:00 14,1 C 53 % 1005,7 hPa 0,0 l/m 7,4 km/h N 4,5 C 13,4 C 20,1 km/h
23.02.2016 15:00 13,8 C 55 % 1005,6 hPa 0,0 l/m 10,3 km/h N 4,8 C 11,7 C 26,5 km/h
23.02.2016 16:00 12,6 C 60 % 1005,9 hPa 0,0 l/m 11,6 km/h N 5,1 C 9,8 C 26,1 km/h
23.02.2016 17:00 12,1 C 62 % 1005,8 hPa 0,0 l/m 4,9 km/h N 5,0 C 11,9 C 17,3 km/h
23.02.2016 18:00 11,9 C 61 % 1005,8 hPa 0,0 l/m 6,7 km/h N 4,7 C 11,5 C 19,3 km/h
23.02.2016 19:00 11,8 C 62 % 1005,7 hPa 0,0 l/m 2,8 km/h N 4,7 C 11,8 C 16,1 km/h
23.02.2016 20:00 10,0 C 68 % 1007,3 hPa 0,5 l/m 10,6 km/h N 4,2 C 7,2 C 29,8 km/h
23.02.2016 21:00 4,7 C 81 % 1010,3 hPa 1,3 l/m 13,4 km/h N 1,8 C -0,4 C 30,2 km/h
23.02.2016 22:00 3,5 C 83 % 1011,2 hPa 1,0 l/m 16,4 km/h N 0,9 C -3,4 C 35,4 km/h
23.02.2016 23:00 3,7 C 83 % 1012,7 hPa 0,3 l/m 12,0 km/h N 1,1 C -0,7 C 27,4 km/h
24.02.2016 00:00 3,8 C 82 % 1013,0 hPa 0,0 l/m 13,2 km/h N 1,1 C -1,3 C 30,2 km/h
24.02.2016 01:00 3,9 C 81 % 1013,6 hPa 0,0 l/m 11,0 km/h N 0,9 C 0,2 C 25,8 km/h
24.02.2016 02:00 3,6 C 78 % 1014,3 hPa 0,0 l/m 9,9 km/h N 0,1 C 0,7 C 23,7 km/h
24.02.2016 03:00 3,2 C 77 % 1015,0 hPa 0,0 l/m 7,0 km/h N -0,4 C 2,4 C 16,1 km/h
24.02.2016 04:00 2,8 C 77 % 1015,4 hPa 0,0 l/m 8,6 km/h N -0,8 C 0,8 C 21,7 km/h
24.02.2016 05:00 2,9 C 73 % 1015,7 hPa 0,0 l/m 8,9 km/h N -1,5 C 0,7 C 23,7 km/h
24.02.2016 06:00 3,0 C 72 % 1016,1 hPa 0,0 l/m 11,1 km/h N -1,6 C -0,8 C 27,0 km/h
24.02.2016 07:00 3,0 C 73 % 1016,7 hPa 0,0 l/m 7,7 km/h N -1,4 C 1,8 C 23,7 km/h
24.02.2016 08:00 3,3 C 74 % 1017,8 hPa 0,0 l/m 6,5 km/h N -1,0 C 3,0 C 21,3 km/h
24.02.2016 09:00 4,4 C 74 % 1018,3 hPa 0,0 l/m 5,9 km/h N 0,1 C 4,3 C 19,3 km/h
24.02.2016 10:00 5,2 C 69 % 1018,4 hPa 0,0 l/m 8,5 km/h N 0,1 C 3,5 C 23,6 km/h
24.02.2016 11:00 5,8 C 66 % 1018,0 hPa 0,0 l/m 7,2 km/h N -0,1 C 5,1 C 23,3 km/h
24.02.2016 12:00 7,1 C 54 % 1017,3 hPa 0,0 l/m 10,5 km/h N -1,6 C 4,0 C 27,4 km/h
24.02.2016 13:00 7,4 C 54 % 1016,5 hPa 0,0 l/m 9,7 km/h N -1,2 C 5,0 C 27,4 km/h
24.02.2016 14:00 7,7 C 53 % 1016,3 hPa 0,0 l/m 8,9 km/h N -1,3 C 5,8 C 29,0 km/h
24.02.2016 15:00 7,1 C 57 % 1016,5 hPa 0,0 l/m 7,2 km/h N -0,8 C 6,5 C 25,7 km/h
24.02.2016 16:00 6,2 C 59 % 1016,5 hPa 0,0 l/m 5,6 km/h N -1,3 C 6,2 C 18,5 km/h
24.02.2016 17:00 5,4 C 61 % 1016,5 hPa 0,0 l/m 3,2 km/h N -1,5 C 5,4 C 13,7 km/h
24.02.2016 18:00 4,1 C 65 % 1016,7 hPa 0,0 l/m 0,0 km/h N -1,9 C 4,1 C 4,8 km/h
24.02.2016 19:00 2,8 C 71 % 1016,6 hPa 0,0 l/m 0,0 km/h N -2,1 C 2,8 C 3,2 km/h
24.02.2016 20:00 1,8 C 74 % 1016,3 hPa 0,0 l/m 0,8 km/h N -2,4 C 1,8 C 4,8 km/h
24.02.2016 21:00 1,0 C 76 % 1016,4 hPa 0,0 l/m 0,0 km/h N -2,8 C 1,0 C 3,2 km/h
24.02.2016 22:00 0,9 C 78 % 1015,9 hPa 0,0 l/m 0,0 km/h N -2,5 C 0,9 C 4,0 km/h
24.02.2016 23:00 1,2 C 79 % 1015,4 hPa 0,0 l/m 0,0 km/h N -2,1 C 1,2 C 0,8 km/h
25.02.2016 00:00 0,0 C 79 % 1014,9 hPa 0,0 l/m 0,0 km/h N -3,2 C 0,0 C 0,0 km/h
25.02.2016 01:00 -1,5 C 81 % 1014,5 hPa 0,0 l/m 0,0 km/h N -4,4 C -1,5 C 0,0 km/h
25.02.2016 02:00 -2,3 C 82 % 1013,4 hPa 0,0 l/m 0,0 km/h N -4,9 C -2,3 C 0,0 km/h
25.02.2016 03:00 -2,6 C 83 % 1012,2 hPa 0,0 l/m 0,0 km/h N -5,1 C -2,6 C 0,0 km/h
25.02.2016 04:00 -2,6 C 84 % 1011,4 hPa 0,0 l/m 0,0 km/h N -4,9 C -2,6 C 0,0 km/h
25.02.2016 05:00 -2,0 C 84 % 1010,7 hPa 0,0 l/m 0,0 km/h N -4,3 C -2,0 C 0,0 km/h
25.02.2016 06:00 -0,8 C 84 % 1009,9 hPa 0,0 l/m 0,0 km/h N -3,1 C -0,8 C 3,2 km/h
25.02.2016 07:00 0,2 C 84 % 1009,3 hPa 0,0 l/m 0,0 km/h N -2,2 C 0,2 C 3,2 km/h
25.02.2016 08:00 1,3 C 84 % 1009,0 hPa 0,0 l/m 0,0 km/h N -1,1 C 1,3 C 4,0 km/h
25.02.2016 09:00 3,8 C 74 % 1008,5 hPa 0,0 l/m 0,8 km/h N -0,5 C 3,8 C 7,2 km/h
25.02.2016 10:00 5,6 C 64 % 1008,2 hPa 0,0 l/m 0,8 km/h N -0,8 C 5,6 C 8,0 km/h
25.02.2016 11:00 6,6 C 61 % 1008,5 hPa 0,0 l/m 1,6 km/h N -0,4 C 6,6 C 9,6 km/h
25.02.2016 12:00 4,3 C 69 % 1009,0 hPa 0,0 l/m 8,0 km/h N -0,9 C 2,9 C 20,1 km/h
25.02.2016 13:00 4,1 C 72 % 1009,3 hPa 0,0 l/m 8,9 km/h N -0,5 C 2,0 C 20,9 km/h
25.02.2016 14:00 4,2 C 73 % 1009,6 hPa 0,0 l/m 6,4 km/h N -0,3 C 4,2 C 17,7 km/h
25.02.2016 15:00 4,1 C 72 % 1010,0 hPa 0,0 l/m 8,9 km/h N -0,5 C 1,9 C 23,3 km/h
25.02.2016 16:00 4,1 C 72 % 1010,7 hPa 0,0 l/m 9,7 km/h N -0,5 C 1,3 C 24,9 km/h
25.02.2016 17:00 4,1 C 73 % 1011,0 hPa 0,0 l/m 8,9 km/h N -0,4 C 2,0 C 22,5 km/h
25.02.2016 18:00 3,8 C 74 % 1011,8 hPa 0,0 l/m 8,0 km/h N -0,4 C 2,3 C 21,7 km/h
25.02.2016 19:00 3,7 C 74 % 1012,3 hPa 0,0 l/m 7,2 km/h N -0,5 C 2,9 C 17,7 km/h
25.02.2016 20:00 3,7 C 75 % 1012,5 hPa 0,0 l/m 8,0 km/h N -0,4 C 2,2 C 20,9 km/h
25.02.2016 21:00 3,7 C 76 % 1012,8 hPa 0,0 l/m 6,4 km/h N -0,1 C 3,7 C 16,1 km/h
25.02.2016 22:00 3,7 C 74 % 1013,1 hPa 0,0 l/m 4,8 km/h N -0,6 C 3,7 C 14,5 km/h
25.02.2016 23:00 3,6 C 74 % 1013,3 hPa 0,0 l/m 2,4 km/h N -0,6 C 3,6 C 9,6 km/h
26.02.2016 00:00 3,1 C 76 % 1013,4 hPa 0,0 l/m 1,6 km/h N -0,7 C 3,1 C 12,9 km/h
26.02.2016 01:00 3,1 C 77 % 1013,5 hPa 0,0 l/m 4,8 km/h N -0,7 C 3,1 C 16,1 km/h
26.02.2016 02:00 3,0 C 76 % 1013,5 hPa 0,0 l/m 4,8 km/h N -0,9 C 3,0 C 17,7 km/h
26.02.2016 03:00 2,1 C 78 % 1013,5 hPa 0,0 l/m 0,8 km/h N -1,4 C 2,1 C 9,6 km/h
26.02.2016 04:00 1,6 C 79 % 1013,8 hPa 0,0 l/m 2,4 km/h N -1,7 C 1,6 C 12,1 km/h
26.02.2016 05:00 0,9 C 78 % 1014,3 hPa 0,0 l/m 0,0 km/h N -2,5 C 0,9 C 3,2 km/h
26.02.2016 06:00 -0,1 C 79 % 1014,6 hPa 0,0 l/m 0,0 km/h N -3,4 C -0,1 C 0,8 km/h
26.02.2016 07:00 -0,6 C 81 % 1014,8 hPa 0,0 l/m 0,0 km/h N -3,5 C -0,6 C 4,0 km/h
26.02.2016 08:00 1,2 C 76 % 1015,3 hPa 0,0 l/m 3,2 km/h N -2,7 C 1,2 C 11,3 km/h
26.02.2016 09:00 3,2 C 63 % 1015,2 hPa 0,0 l/m 5,6 km/h N -3,2 C 3,2 C 15,3 km/h
26.02.2016 10:00 4,1 C 56 % 1015,2 hPa 0,0 l/m 5,6 km/h N -3,9 C 4,1 C 16,9 km/h
26.02.2016 11:00 3,9 C 56 % 1015,2 hPa 0,0 l/m 4,8 km/h N -4,1 C 3,9 C 12,9 km/h
26.02.2016 12:00 4,3 C 56 % 1014,6 hPa 0,0 l/m 3,2 km/h N -3,9 C 4,3 C 12,9 km/h
26.02.2016 13:00 5,0 C 55 % 1014,0 hPa 0,0 l/m 2,4 km/h N -3,3 C 5,0 C 10,5 km/h
26.02.2016 14:00 5,2 C 53 % 1013,7 hPa 0,0 l/m 1,6 km/h N -3,6 C 5,2 C 12,9 km/h
26.02.2016 15:00 5,4 C 51 % 1013,3 hPa 0,0 l/m 1,6 km/h N -3,9 C 5,4 C 9,7 km/h
26.02.2016 16:00 5,1 C 51 % 1013,0 hPa 0,0 l/m 1,6 km/h N -4,3 C 5,1 C 8,0 km/h
26.02.2016 17:00 4,4 C 52 % 1013,2 hPa 0,0 l/m 0,8 km/h N -4,7 C 4,4 C 5,6 km/h
26.02.2016 18:00 3,7 C 57 % 1013,8 hPa 0,0 l/m 0,0 km/h N -4,1 C 3,7 C 1,6 km/h
26.02.2016 19:00 3,1 C 60 % 1014,0 hPa 0,0 l/m 0,0 km/h N -3,9 C 3,1 C 2,4 km/h
26.02.2016 20:00 1,9 C 64 % 1013,6 hPa 0,0 l/m 0,0 km/h N -4,2 C 1,9 C 0,0 km/h
26.02.2016 21:00 1,8 C 66 % 1013,3 hPa 0,0 l/m 0,0 km/h N -3,8 C 1,8 C 3,2 km/h
26.02.2016 22:00 2,3 C 63 % 1013,0 hPa 0,0 l/m 0,0 km/h N -4,0 C 2,3 C 3,2 km/h
26.02.2016 23:00 2,1 C 64 % 1012,5 hPa 0,0 l/m 0,0 km/h N -4,0 C 2,1 C 0,0 km/h
27.02.2016 00:00 1,8 C 65 % 1012,3 hPa 0,0 l/m 0,0 km/h N -4,2 C 1,8 C 4,0 km/h
27.02.2016 01:00 1,0 C 66 % 1012,3 hPa 0,0 l/m 0,0 km/h N -4,6 C 1,0 C 3,2 km/h
27.02.2016 02:00 -0,6 C 72 % 1011,9 hPa 0,0 l/m 0,0 km/h N -5,1 C -0,6 C 3,2 km/h
27.02.2016 03:00 -0,5 C 75 % 1011,4 hPa 0,0 l/m 0,0 km/h N -4,3 C -0,5 C 4,8 km/h
27.02.2016 04:00 0,2 C 75 % 1011,2 hPa 0,0 l/m 0,8 km/h N -3,8 C 0,2 C 8,9 km/h
27.02.2016 05:00 0,3 C 74 % 1011,1 hPa 0,0 l/m 0,8 km/h N -3,8 C 0,3 C 13,7 km/h
27.02.2016 06:00 0,9 C 70 % 1011,0 hPa 0,0 l/m 3,2 km/h N -4,0 C 0,9 C 16,1 km/h
27.02.2016 07:00 1,3 C 67 % 1011,4 hPa 0,0 l/m 4,0 km/h N -4,1 C 1,3 C 16,1 km/h
27.02.2016 08:00 2,0 C 64 % 1011,7 hPa 0,0 l/m 5,8 km/h N -4,2 C 1,9 C 21,7 km/h
27.02.2016 09:00 3,1 C 62 % 1011,5 hPa 0,0 l/m 5,3 km/h N -3,5 C 2,9 C 18,1 km/h
27.02.2016 10:00 5,0 C 58 % 1011,2 hPa 0,0 l/m 5,7 km/h N -2,6 C 4,9 C 22,5 km/h
27.02.2016 11:00 7,2 C 52 % 1011,0 hPa 0,0 l/m 8,0 km/h N -2,1 C 6,0 C 26,1 km/h
27.02.2016 12:00 7,8 C 51 % 1010,5 hPa 0,0 l/m 6,8 km/h N -1,6 C 7,5 C 22,1 km/h
27.02.2016 13:00 8,3 C 50 % 1010,3 hPa 0,0 l/m 6,8 km/h N -1,6 C 8,0 C 21,7 km/h
27.02.2016 14:00 8,1 C 51 % 1010,0 hPa 0,0 l/m 6,3 km/h N -1,4 C 7,8 C 19,3 km/h
27.02.2016 15:00 7,9 C 53 % 1009,9 hPa 0,0 l/m 6,7 km/h N -1,0 C 7,5 C 21,7 km/h
27.02.2016 16:00 8,0 C 54 % 1009,8 hPa 0,0 l/m 5,2 km/h N -0,6 C 8,0 C 16,1 km/h
27.02.2016 17:00 6,9 C 58 % 1010,0 hPa 0,0 l/m 4,0 km/h N -0,8 C 6,9 C 12,9 km/h
27.02.2016 18:00 6,3 C 63 % 1010,4 hPa 0,0 l/m 2,8 km/h N -0,3 C 6,3 C 10,9 km/h
27.02.2016 19:00 6,4 C 64 % 1010,5 hPa 0,0 l/m 2,4 km/h N -0,1 C 6,4 C 12,1 km/h
27.02.2016 20:00 6,2 C 66 % 1010,4 hPa 0,0 l/m 2,7 km/h N 0,2 C 6,2 C 13,3 km/h
27.02.2016 21:00 6,1 C 68 % 1010,8 hPa 0,0 l/m 4,7 km/h N 0,6 C 6,1 C 14,9 km/h
27.02.2016 22:00 5,9 C 69 % 1010,7 hPa 0,0 l/m 3,1 km/h N 0,6 C 5,9 C 10,1 km/h
27.02.2016 23:00 5,4 C 71 % 1010,5 hPa 0,0 l/m 2,5 km/h N 0,5 C 5,4 C 10,9 km/h
28.02.2016 00:00 5,0 C 73 % 1010,4 hPa 0,0 l/m 0,8 km/h N 0,5 C 5,0 C 6,9 km/h
28.02.2016 01:00 4,6 C 75 % 1010,4 hPa 0,0 l/m 1,2 km/h N 0,5 C 4,6 C 7,6 km/h
28.02.2016 02:00 4,0 C 77 % 1010,4 hPa 0,0 l/m 0,1 km/h N 0,3 C 4,0 C 2,0 km/h
28.02.2016 03:00 3,3 C 79 % 1010,5 hPa 0,0 l/m 0,0 km/h N 0,0 C 3,3 C 2,0 km/h
28.02.2016 04:00 3,7 C 82 % 1010,8 hPa 0,0 l/m 0,8 km/h N 0,9 C 3,7 C 7,0 km/h
28.02.2016 05:00 4,2 C 82 % 1011,0 hPa 0,0 l/m 0,2 km/h N 1,4 C 4,2 C 3,6 km/h
28.02.2016 06:00 4,1 C 82 % 1011,3 hPa 0,0 l/m 0,1 km/h N 1,3 C 4,1 C 1,6 km/h
28.02.2016 07:00 4,4 C 82 % 1011,9 hPa 0,0 l/m 0,6 km/h N 1,6 C 4,4 C 6,0 km/h
28.02.2016 08:00 5,0 C 82 % 1012,3 hPa 0,0 l/m 0,8 km/h N 2,3 C 5,0 C 7,2 km/h
28.02.2016 09:00 6,1 C 82 % 1012,4 hPa 0,0 l/m 0,6 km/h N 3,2 C 6,1 C 6,4 km/h
28.02.2016 10:00 7,3 C 80 % 1012,4 hPa 0,0 l/m 1,0 km/h N 4,0 C 7,3 C 6,8 km/h
28.02.2016 11:00 8,3 C 76 % 1012,5 hPa 0,0 l/m 2,2 km/h N 4,2 C 8,3 C 12,5 km/h
28.02.2016 12:00 9,4 C 73 % 1012,5 hPa 0,0 l/m 3,3 km/h N 4,8 C 9,4 C 12,1 km/h
28.02.2016 13:00 10,2 C 72 % 1012,2 hPa 0,0 l/m 3,1 km/h N 5,3 C 10,2 C 13,7 km/h
28.02.2016 14:00 10,2 C 72 % 1012,3 hPa 0,0 l/m 3,3 km/h N 5,4 C 10,2 C 14,1 km/h
28.02.2016 15:00 9,8 C 74 % 1012,5 hPa 0,0 l/m 2,4 km/h N 5,2 C 9,8 C 10,9 km/h
28.02.2016 16:00 9,5 C 75 % 1012,6 hPa 0,0 l/m 1,5 km/h N 5,3 C 9,5 C 9,7 km/h
28.02.2016 17:00 9,2 C 77 % 1013,3 hPa 0,0 l/m 0,4 km/h N 5,4 C 9,2 C 4,8 km/h
28.02.2016 18:00 8,8 C 79 % 1014,0 hPa 0,0 l/m 0,3 km/h N 5,3 C 8,8 C 4,0 km/h
28.02.2016 19:00 8,1 C 81 % 1014,1 hPa 0,0 l/m 0,5 km/h N 5,0 C 8,1 C 4,8 km/h
28.02.2016 20:00 7,7 C 82 % 1014,5 hPa 0,0 l/m 0,5 km/h N 4,8 C 7,7 C 4,8 km/h
28.02.2016 21:00 7,7 C 82 % 1014,7 hPa 0,0 l/m 0,8 km/h N 4,8 C 7,7 C 6,0 km/h
28.02.2016 22:00 7,4 C 83 % 1014,9 hPa 0,0 l/m 0,2 km/h N 4,7 C 7,4 C 3,2 km/h
28.02.2016 23:00 7,1 C 83 % 1014,8 hPa 0,0 l/m 0,3 km/h N 4,4 C 7,1 C 4,8 km/h
Min-Datum _ 25.02.16 22.02.16 23.02.16 - 22.02.16 - 27.02.16 23.02.16 22.02.16
_ Min-Zeit 03:30 14:30 14:45 - 17:45 - 02:30 22:00 17:45
Minimum _ -2,6 C 35 % 1005,6 hPa - 0,0 km/h - -5,1 C -3,8 C 0,0 km/h
Max-Datum _ 22.02.16 25.02.16 24.02.16 23.02.16 23.02.16 - 22.02.16 22.02.16 22.02.16
_ Max-Zeit 15:15 04:00 09:30 21:00 00:15 - 00:00 15:15 11:30
Maximum _ 20,8 C 84 % 1018,4 hPa 1,3 l/m 20,3 km/h
N
- 7,4 C 20,8 C 45,1 km/h
N
Durchschnitt _ 7,0 C 66 % 1011,5 hPa #3,1 l/m 4,6 km/h N 0,6 C 6,3 C 15,0 km/h